Time,TemperatureF,DewpointF,PressureIn,WindDirection,WindDirectionDegrees,WindSpeedMPH,WindSpeedGustMPH,Humidity,HourlyPrecipIn,Conditions,Clouds,dailyrainin,SolarRadiationWatts/m^2,SoftwareType,DateUTC
2013-10-03 00:06:00,58.0,58.0,-100.00,NW,326,2.0,2.0,99,0.00,,,0.00,0.000000,,2013-10-03 04:06:00,
2013-10-03 00:11:00,58.0,58.0,-100.00,West,275,1.0,2.0,99,0.00,,,0.00,0.000000,,2013-10-03 04:11:00,
2013-10-03 00:44:00,58.0,58.0,-100.00,West,275,1.0,2.0,99,0.00,,,0.00,0.000000,,2013-10-03 04:44:00,
2013-10-03 00:53:00,58.0,58.0,-100.00,West,275,1.0,2.0,99,0.00,,,0.00,0.000000,,2013-10-03 04:53:00,
2013-10-03 01:04:00,58.0,58.0,-100.00,West,275,1.0,2.0,99,0.00,,,0.00,0.000000,,2013-10-03 05:04:00,
2013-10-03 01:11:00,57.0,57.0,-100.00,NNW,336,1.0,2.0,100,0.00,,,0.00,0.000000,,2013-10-03 05:11:00,
2013-10-03 01:44:00,57.0,57.0,-100.00,NNW,336,1.0,2.0,100,0.00,,,0.00,0.000000,,2013-10-03 05:44:00,
2013-10-03 01:52:00,57.0,57.0,-100.00,NNW,336,1.0,2.0,100,0.00,,,0.00,0.000000,,2013-10-03 05:52:00,
2013-10-03 02:02:00,57.0,57.0,-100.00,NNW,336,1.0,2.0,100,0.00,,,0.00,0.000000,,2013-10-03 06:02:00,
2013-10-03 02:11:00,57.0,57.0,-100.00,West,270,2.0,2.0,100,0.00,,,0.00,0.000000,,2013-10-03 06:11:00,
2013-10-03 02:42:00,57.0,57.0,-100.00,West,270,2.0,2.0,100,0.00,,,0.00,0.000000,,2013-10-03 06:42:00,
2013-10-03 02:52:00,57.0,57.0,-100.00,West,270,2.0,2.0,100,0.00,,,0.00,0.000000,,2013-10-03 06:52:00,
2013-10-03 03:02:00,57.0,57.0,-100.00,West,270,2.0,2.0,100,0.00,,,0.00,0.000000,,2013-10-03 07:02:00,
2013-10-03 03:11:00,58.0,58.0,-100.00,SSE,155,0.0,2.0,100,0.00,,,0.00,0.000000,,2013-10-03 07:11:00,
2013-10-03 03:42:00,58.0,58.0,-100.00,SSE,155,0.0,2.0,100,0.00,,,0.00,0.000000,,2013-10-03 07:42:00,
2013-10-03 03:52:00,58.0,58.0,-100.00,SSE,155,0.0,2.0,100,0.00,,,0.00,0.000000,,2013-10-03 07:52:00,
2013-10-03 04:03:00,58.0,58.0,-100.00,SSE,155,0.0,2.0,100,0.00,,,0.00,0.000000,,2013-10-03 08:03:00,
2013-10-03 04:11:00,58.0,58.0,-100.00,NW,322,1.0,2.0,100,0.00,,,0.00,0.000000,,2013-10-03 08:11:00,
2013-10-03 04:42:00,58.0,58.0,-100.00,NW,322,1.0,2.0,100,0.00,,,0.00,0.000000,,2013-10-03 08:42:00,
2013-10-03 04:52:00,58.0,58.0,-100.00,NW,322,1.0,2.0,100,0.00,,,0.00,0.000000,,2013-10-03 08:52:00,
2013-10-03 05:02:00,58.0,58.0,-100.00,NW,322,1.0,2.0,100,0.00,,,0.00,0.000000,,2013-10-03 09:02:00,
2013-10-03 05:11:00,58.0,58.0,-100.00,WSW,252,1.0,2.0,100,0.00,,,0.00,0.000000,,2013-10-03 09:11:00,
2013-10-03 05:43:00,58.0,58.0,-100.00,WSW,252,1.0,2.0,100,0.00,,,0.00,0.000000,,2013-10-03 09:43:00,
2013-10-03 05:53:00,58.0,58.0,-100.00,WSW,252,1.0,2.0,100,0.00,,,0.00,0.000000,,2013-10-03 09:53:00,
2013-10-03 06:03:00,58.0,58.0,-100.00,WSW,252,1.0,2.0,100,0.00,,,0.00,0.000000,,2013-10-03 10:03:00,
2013-10-03 06:11:00,58.0,58.0,-100.00,NW,308,1.0,2.0,100,0.00,,,0.00,0.000000,,2013-10-03 10:11:00,
2013-10-03 06:43:00,58.0,58.0,-100.00,NW,308,1.0,2.0,100,0.00,,,0.00,0.000000,,2013-10-03 10:43:00,
2013-10-03 06:52:00,58.0,58.0,-100.00,NW,308,1.0,2.0,100,0.00,,,0.00,0.000000,,2013-10-03 10:52:00,
2013-10-03 07:03:00,58.0,58.0,-100.00,NW,308,1.0,2.0,100,0.00,,,0.00,0.000000,,2013-10-03 11:03:00,
2013-10-03 07:11:00,58.0,58.0,-100.00,WNW,289,1.0,2.0,100,0.00,,,0.00,0.000000,,2013-10-03 11:11:00,
2013-10-03 07:42:00,58.0,58.0,-100.00,WNW,289,1.0,2.0,100,0.00,,,0.00,0.000000,,2013-10-03 11:42:00,
2013-10-03 07:52:00,58.0,58.0,-100.00,WNW,289,1.0,2.0,100,0.00,,,0.00,0.000000,,2013-10-03 11:52:00,
2013-10-03 08:02:00,58.0,58.0,-100.00,WNW,289,1.0,2.0,100,0.00,,,0.00,0.000000,,2013-10-03 12:02:00,
2013-10-03 08:11:00,57.0,57.0,-100.00,South,172,1.0,2.0,100,0.00,,,0.00,9.000000,,2013-10-03 12:11:00,
2013-10-03 08:42:00,57.0,57.0,-100.00,South,172,1.0,2.0,100,0.00,,,0.00,9.000000,,2013-10-03 12:42:00,
2013-10-03 08:52:00,57.0,57.0,-100.00,South,172,1.0,2.0,100,0.00,,,0.00,9.000000,,2013-10-03 12:52:00,
2013-10-03 09:02:00,57.0,57.0,-100.00,South,172,1.0,2.0,100,0.00,,,0.00,9.000000,,2013-10-03 13:02:00,
2013-10-03 09:11:00,63.0,63.0,-100.00,West,272,2.0,3.0,100,0.00,,,0.00,146.000000,,2013-10-03 13:11:00,
2013-10-03 09:42:00,63.0,63.0,-100.00,West,272,2.0,3.0,100,0.00,,,0.00,146.000000,,2013-10-03 13:42:00,
2013-10-03 09:52:00,63.0,63.0,-100.00,West,272,2.0,3.0,100,0.00,,,0.00,146.000000,,2013-10-03 13:52:00,
2013-10-03 10:02:00,63.0,63.0,-100.00,West,272,2.0,3.0,100,0.00,,,0.00,146.000000,,2013-10-03 14:02:00,
2013-10-03 10:11:00,65.0,62.0,-100.00,ESE,104,1.0,5.0,90,0.00,,,0.00,184.000000,,2013-10-03 14:11:00,
2013-10-03 10:42:00,65.0,62.0,-100.00,ESE,104,1.0,5.0,90,0.00,,,0.00,184.000000,,2013-10-03 14:42:00,
2013-10-03 10:52:00,65.0,62.0,-100.00,ESE,104,1.0,5.0,90,0.00,,,0.00,184.000000,,2013-10-03 14:52:00,
2013-10-03 11:01:00,65.0,62.0,-100.00,ESE,104,1.0,5.0,90,0.00,,,0.00,184.000000,,2013-10-03 15:01:00,
2013-10-03 11:11:00,70.0,65.0,-100.00,East,84,3.0,6.0,84,0.00,,,0.00,374.000000,,2013-10-03 15:11:00,
2013-10-03 11:43:00,70.0,65.0,-100.00,East,84,3.0,6.0,84,0.00,,,0.00,374.000000,,2013-10-03 15:43:00,
2013-10-03 11:54:00,70.0,65.0,-100.00,East,84,3.0,6.0,84,0.00,,,0.00,374.000000,,2013-10-03 15:54:00,
2013-10-03 12:04:00,70.0,65.0,-100.00,East,84,3.0,6.0,84,0.00,,,0.00,374.000000,,2013-10-03 16:04:00,
2013-10-03 12:11:00,74.0,63.0,-100.00,ENE,76,2.0,6.0,68,0.00,,,0.00,517.000000,,2013-10-03 16:11:00,
2013-10-03 12:43:00,74.0,63.0,-100.00,ENE,76,2.0,6.0,68,0.00,,,0.00,517.000000,,2013-10-03 16:43:00,
2013-10-03 12:53:00,74.0,63.0,-100.00,ENE,76,2.0,6.0,68,0.00,,,0.00,517.000000,,2013-10-03 16:53:00,
2013-10-03 13:03:00,74.0,63.0,-100.00,ENE,76,2.0,6.0,68,0.00,,,0.00,517.000000,,2013-10-03 17:03:00,
2013-10-03 13:11:00,78.0,64.0,-100.00,ESE,121,3.0,6.0,63,0.00,,,0.00,631.000000,,2013-10-03 17:11:00,
2013-10-03 13:42:00,78.0,64.0,-100.00,ESE,121,3.0,6.0,63,0.00,,,0.00,631.000000,,2013-10-03 17:42:00,
2013-10-03 13:52:00,78.0,64.0,-100.00,ESE,121,3.0,6.0,63,0.00,,,0.00,631.000000,,2013-10-03 17:52:00,
2013-10-03 14:02:00,78.0,64.0,-100.00,ESE,121,3.0,6.0,63,0.00,,,0.00,631.000000,,2013-10-03 18:02:00,
2013-10-03 14:11:00,78.0,58.0,-100.00,East,88,3.0,7.0,51,0.00,,,0.00,853.000000,,2013-10-03 18:11:00,
2013-10-03 14:42:00,78.0,58.0,-100.00,East,88,3.0,7.0,51,0.00,,,0.00,853.000000,,2013-10-03 18:42:00,
2013-10-03 14:52:00,78.0,58.0,-100.00,East,88,3.0,7.0,51,0.00,,,0.00,853.000000,,2013-10-03 18:52:00,
2013-10-03 15:01:00,78.0,58.0,-100.00,East,88,3.0,7.0,51,0.00,,,0.00,853.000000,,2013-10-03 19:01:00,
2013-10-03 15:11:00,74.0,59.0,-100.00,NNW,341,2.0,7.0,60,0.00,,,0.00,263.000000,,2013-10-03 19:11:00,
2013-10-03 15:42:00,74.0,59.0,-100.00,NNW,341,2.0,7.0,60,0.00,,,0.00,263.000000,,2013-10-03 19:42:00,
2013-10-03 15:53:00,74.0,59.0,-100.00,NNW,341,2.0,7.0,60,0.00,,,0.00,263.000000,,2013-10-03 19:53:00,
2013-10-03 16:02:00,74.0,59.0,-100.00,NNW,341,2.0,7.0,60,0.00,,,0.00,263.000000,,2013-10-03 20:02:00,
2013-10-03 16:11:00,76.0,61.0,-100.00,NNW,343,2.0,6.0,59,0.00,,,0.00,403.000000,,2013-10-03 20:11:00,
2013-10-03 16:42:00,76.0,61.0,-100.00,NNW,343,2.0,6.0,59,0.00,,,0.00,403.000000,,2013-10-03 20:42:00,
2013-10-03 16:52:00,76.0,61.0,-100.00,NNW,343,2.0,6.0,59,0.00,,,0.00,403.000000,,2013-10-03 20:52:00,
2013-10-03 17:02:00,76.0,61.0,-100.00,NNW,343,2.0,6.0,59,0.00,,,0.00,403.000000,,2013-10-03 21:02:00,
2013-10-03 17:11:00,72.0,58.0,-100.00,NNE,21,2.0,7.0,62,0.00,,,0.00,239.000000,,2013-10-03 21:11:00,
2013-10-03 17:43:00,72.0,58.0,-100.00,NNE,21,2.0,7.0,62,0.00,,,0.00,239.000000,,2013-10-03 21:43:00,
2013-10-03 17:54:00,72.0,58.0,-100.00,NNE,21,2.0,7.0,62,0.00,,,0.00,239.000000,,2013-10-03 21:54:00,
2013-10-03 18:04:00,72.0,58.0,-100.00,NNE,21,2.0,7.0,62,0.00,,,0.00,239.000000,,2013-10-03 22:04:00,
2013-10-03 18:11:00,71.0,59.0,-100.00,NNE,13,2.0,6.0,65,0.00,,,0.00,94.000000,,2013-10-03 22:11:00,
2013-10-03 18:43:00,71.0,59.0,-100.00,NNE,13,2.0,6.0,65,0.00,,,0.00,94.000000,,2013-10-03 22:43:00,
2013-10-03 18:54:00,71.0,59.0,-100.00,NNE,13,2.0,6.0,65,0.00,,,0.00,94.000000,,2013-10-03 22:54:00,
2013-10-03 19:03:00,71.0,59.0,-100.00,NNE,13,2.0,6.0,65,0.00,,,0.00,94.000000,,2013-10-03 23:03:00,
2013-10-03 19:11:00,65.0,58.0,-100.00,NNE,16,1.0,2.0,79,0.00,,,0.00,16.000000,,2013-10-03 23:11:00,
2013-10-03 19:43:00,65.0,58.0,-100.00,NNE,16,1.0,2.0,79,0.00,,,0.00,16.000000,,2013-10-03 23:43:00,
2013-10-03 19:53:00,65.0,58.0,-100.00,NNE,16,1.0,2.0,79,0.00,,,0.00,16.000000,,2013-10-03 23:53:00,
2013-10-03 20:02:00,65.0,58.0,-100.00,NNE,16,1.0,2.0,79,0.00,,,0.00,16.000000,,2013-10-04 00:02:00,
2013-10-03 20:11:00,62.0,60.0,-100.00,North,357,0.0,2.0,92,0.00,,,0.00,0.000000,,2013-10-04 00:11:00,
2013-10-03 20:42:00,62.0,60.0,-100.00,North,357,0.0,2.0,92,0.00,,,0.00,0.000000,,2013-10-04 00:42:00,
2013-10-03 20:52:00,62.0,60.0,-100.00,North,357,0.0,2.0,92,0.00,,,0.00,0.000000,,2013-10-04 00:52:00,
2013-10-03 21:02:00,62.0,60.0,-100.00,North,357,0.0,2.0,92,0.00,,,0.00,0.000000,,2013-10-04 01:02:00,
2013-10-03 21:11:00,60.0,59.0,-100.00,North,2,1.0,2.0,97,0.00,,,0.00,0.000000,,2013-10-04 01:11:00,
2013-10-03 21:42:00,60.0,59.0,-100.00,North,2,1.0,2.0,97,0.00,,,0.00,0.000000,,2013-10-04 01:42:00,
2013-10-03 21:52:00,60.0,59.0,-100.00,North,2,1.0,2.0,97,0.00,,,0.00,0.000000,,2013-10-04 01:52:00,
2013-10-03 22:02:00,60.0,59.0,-100.00,North,2,1.0,2.0,97,0.00,,,0.00,0.000000,,2013-10-04 02:02:00,
2013-10-03 22:11:00,59.0,58.0,-100.00,WSW,248,2.0,3.0,98,0.00,,,0.00,0.000000,,2013-10-04 02:11:00,
2013-10-03 22:43:00,59.0,58.0,-100.00,WSW,248,2.0,3.0,98,0.00,,,0.00,0.000000,,2013-10-04 02:43:00,
2013-10-03 22:52:00,59.0,58.0,-100.00,WSW,248,2.0,3.0,98,0.00,,,0.00,0.000000,,2013-10-04 02:52:00,
2013-10-03 23:03:00,59.0,58.0,-100.00,WSW,248,2.0,3.0,98,0.00,,,0.00,0.000000,,2013-10-04 03:03:00,
2013-10-03 23:44:00,58.0,58.0,-100.00,NW,310,2.0,2.0,99,0.00,,,0.00,0.000000,,2013-10-04 03:44:00,